Time;durP1;ratioP1;P1;durP2;ratioP2;P2;SDS_P1;SDS_P2;PMS_P1;PMS_P2;Temp;Humidity;BMP_temperature;BMP_pressure;BME280_temperature;BME280_humidity;BME280_pressure;Samples;Min_cycle;Max_cycle;Signal;HPM_P1;HPM_P2
2024/01/21 00:04:00;;;;;;;8.77;4.88;;;4.50;98.90;;;;;;10303158;28;20138;-91
2024/01/21 00:09:00;;;;;;;9.63;5.07;;;5.00;99.40;;;;;;10305289;28;20092;-90
2024/01/21 00:14:01;;;;;;;10.30;5.00;;;5.60;99.50;;;;;;10306478;28;20393;-88
2024/01/21 00:19:02;;;;;;;12.13;5.43;;;4.30;99.00;;;;;;10306157;28;20030;-89
2024/01/21 00:24:03;;;;;;;8.07;5.07;;;4.20;99.10;;;;;;10309198;28;20037;-90
2024/01/21 00:29:03;;;;;;;10.35;4.82;;;4.40;99.20;;;;;;10302485;28;20092;-89
2024/01/21 00:34:04;;;;;;;9.95;4.60;;;5.40;99.40;;;;;;10306191;28;20030;-90
2024/01/21 00:39:05;;;;;;;11.50;5.32;;;5.00;99.20;;;;;;10313609;28;20121;-89
2024/01/21 00:44:06;;;;;;;8.13;4.15;;;5.30;99.20;;;;;;10322395;28;20026;-90
2024/01/21 00:49:07;;;;;;;9.40;4.85;;;4.30;98.70;;;;;;10318251;28;20026;-90
2024/01/21 00:54:08;;;;;;;10.18;5.20;;;5.40;99.20;;;;;;10320328;28;20015;-89
2024/01/21 00:59:09;;;;;;;10.00;4.50;;;4.30;98.60;;;;;;10320262;28;20403;-89
2024/01/21 01:04:09;;;;;;;9.60;4.72;;;5.30;99.20;;;;;;10319744;28;20488;-89
2024/01/21 01:09:10;;;;;;;11.20;4.70;;;5.60;99.20;;;;;;10309833;28;20041;-90
2024/01/21 01:14:11;;;;;;;11.13;4.70;;;4.10;99.00;;;;;;10316805;28;20030;-90
2024/01/21 01:19:11;;;;;;;8.52;3.95;;;4.30;98.60;;;;;;10318444;28;20525;-91
2024/01/21 01:24:12;;;;;;;11.23;4.70;;;5.90;99.30;;;;;;10313338;28;20019;-89
2024/01/21 01:29:13;;;;;;;10.10;5.00;;;4.50;99.00;;;;;;10309839;28;20100;-89
2024/01/21 01:34:14;;;;;;;9.60;4.30;;;5.30;99.10;;;;;;10315377;28;20494;-90
2024/01/21 01:39:14;;;;;;;7.30;4.50;;;4.20;98.90;;;;;;10323545;28;20173;-90
2024/01/21 01:44:15;;;;;;;9.75;4.82;;;4.30;98.90;;;;;;10316439;28;20378;-90
2024/01/21 01:49:16;;;;;;;9.43;4.70;;;4.40;98.90;;;;;;10311482;28;20169;-90
2024/01/21 01:54:17;;;;;;;8.70;4.60;;;5.60;99.20;;;;;;10312808;28;20022;-90
2024/01/21 01:59:19;;;;;;;11.07;4.90;;;3.80;98.50;;;;;;10311547;28;20026;-89
2024/01/21 02:04:20;;;;;;;9.43;4.65;;;4.60;98.70;;;;;;10318867;28;20162;-89
2024/01/21 02:09:21;;;;;;;9.93;4.60;;;5.30;98.90;;;;;;10304760;28;20026;-90
2024/01/21 02:14:21;;;;;;;9.43;4.38;;;5.10;98.80;;;;;;10305094;28;20030;-90
2024/01/21 02:19:27;;;;;;;7.97;3.88;;;4.40;98.70;;;;;;10311879;28;20038;-89
2024/01/21 02:24:31;;;;;;;9.52;4.55;;;6.40;98.90;;;;;;10314543;28;20106;-89
2024/01/21 02:29:31;;;;;;;7.85;4.25;;;3.90;98.40;;;;;;10312909;28;20117;-89
2024/01/21 02:34:32;;;;;;;8.60;4.30;;;3.80;98.50;;;;;;10308210;28;20040;-89
2024/01/21 02:39:33;;;;;;;11.10;4.50;;;4.50;98.50;;;;;;10309776;28;20019;-89
2024/01/21 02:44:33;;;;;;;11.65;4.13;;;4.30;98.50;;;;;;10304566;28;20014;-89
2024/01/21 02:49:34;;;;;;;8.43;3.88;;;5.50;98.60;;;;;;10309111;28;20101;-89
2024/01/21 02:54:35;;;;;;;6.55;3.83;;;;;;;;;;10308444;28;20018;-89
2024/01/21 02:59:36;;;;;;;7.13;3.95;;;4.30;97.90;;;;;;10309325;28;20026;-89
2024/01/21 03:04:36;;;;;;;8.52;3.63;;;5.70;98.70;;;;;;10318300;28;20034;-90
2024/01/21 03:09:37;;;;;;;6.28;3.55;;;4.30;98.20;;;;;;10314589;28;20030;-90
2024/01/21 03:14:38;;;;;;;8.57;3.70;;;5.00;98.20;;;;;;10307099;28;20191;-89
2024/01/21 03:19:38;;;;;;;6.72;3.80;;;4.30;98.00;;;;;;10309859;28;20035;-90
2024/01/21 03:24:39;;;;;;;5.95;3.30;;;4.20;98.20;;;;;;10306360;28;20570;-90
2024/01/21 03:29:40;;;;;;;6.43;3.25;;;5.60;98.40;;;;;;10317297;28;20026;-90
2024/01/21 03:34:42;;;;;;;7.07;3.45;;;5.80;98.30;;;;;;10303826;28;20023;-90
2024/01/21 03:39:43;;;;;;;6.78;3.08;;;4.80;97.90;;;;;;10299376;28;20023;-89
2024/01/21 03:44:43;;;;;;;6.38;2.97;;;4.90;98.10;;;;;;10300822;28;20039;-89
2024/01/21 03:49:44;;;;;;;7.05;2.88;;;5.90;98.30;;;;;;10313370;28;20087;-90
2024/01/21 03:54:45;;;;;;;3.95;2.58;;;4.20;97.50;;;;;;10311357;28;20025;-90
2024/01/21 03:59:45;;;;;;;5.38;3.00;;;5.70;98.20;;;;;;10312498;28;20068;-89
2024/01/21 04:04:46;;;;;;;5.00;2.53;;;4.10;97.80;;;;;;10303334;28;20018;-90
2024/01/21 04:09:47;;;;;;;6.30;2.67;;;4.10;97.90;;;;;;10301634;28;20031;-89
2024/01/21 04:14:48;;;;;;;5.40;2.47;;;5.30;98.10;;;;;;10308240;28;20049;-88
2024/01/21 04:19:48;;;;;;;4.25;2.50;;;4.70;97.90;;;;;;10300044;28;20395;-90
2024/01/21 04:24:49;;;;;;;5.65;2.95;;;4.20;97.80;;;;;;10305529;28;20031;-90
2024/01/21 04:29:50;;;;;;;4.50;2.40;;;4.20;97.80;;;;;;10308485;28;20026;-90
2024/01/21 04:34:50;;;;;;;5.55;2.50;;;5.30;98.10;;;;;;10305491;28;20038;-89
2024/01/21 04:39:51;;;;;;;6.35;2.72;;;3.80;97.70;;;;;;10307504;28;20023;-89
2024/01/21 04:44:52;;;;;;;4.22;2.10;;;5.00;97.90;;;;;;10305238;28;20022;-90
2024/01/21 04:49:52;;;;;;;5.20;2.72;;;5.10;97.90;;;;;;10305569;28;20033;-89
2024/01/21 04:54:53;;;;;;;6.03;2.72;;;5.50;97.90;;;;;;10308222;28;20162;-89
2024/01/21 04:59:54;;;;;;;3.78;2.03;;;3.90;97.60;;;;;;10306028;28;20054;-89
2024/01/21 05:04:54;;;;;;;5.93;2.67;;;4.10;97.50;;;;;;10305937;28;20034;-88
2024/01/21 05:09:56;;;;;;;3.90;2.00;;;3.30;97.40;;;;;;10303661;28;20100;-89
2024/01/21 05:14:56;;;;;;;4.65;2.20;;;4.10;97.30;;;;;;10302718;28;20027;-89
2024/01/21 05:19:57;;;;;;;4.22;2.20;;;4.10;97.40;;;;;;10305335;28;20023;-88
2024/01/21 05:24:58;;;;;;;4.15;2.33;;;4.10;97.00;;;;;;10306784;28;20030;-90
2024/01/21 05:29:59;;;;;;;4.72;2.10;;;;;;;;;;10310471;28;20058;-89
2024/01/21 05:34:59;;;;;;;4.10;1.80;;;4.20;97.00;;;;;;10309422;28;20239;-89
2024/01/21 05:40:00;;;;;;;3.05;1.95;;;4.20;97.30;;;;;;10311286;28;20032;-91
2024/01/21 05:45:01;;;;;;;4.40;2.30;;;4.20;97.20;;;;;;10314143;28;20019;-91
2024/01/21 05:50:01;;;;;;;3.33;1.88;;;5.30;97.50;;;;;;10315934;28;20023;-90
2024/01/21 05:55:04;;;;;;;2.92;1.80;;;4.20;97.20;;;;;;10314010;28;20478;-90
2024/01/21 06:00:05;;;;;;;3.35;2.20;;;4.20;97.00;;;;;;10312685;28;20105;-89
2024/01/21 06:05:06;;;;;;;4.95;2.40;;;4.20;97.00;;;;;;10307595;28;20064;-89
2024/01/21 06:10:08;;;;;;;3.92;1.98;;;4.20;97.00;;;;;;10306888;28;20037;-90
2024/01/21 06:15:09;;;;;;;5.15;2.35;;;4.20;97.00;;;;;;10309158;28;20332;-89
2024/01/21 06:20:11;;;;;;;6.80;2.83;;;4.20;96.80;;;;;;10314012;28;20080;-89
2024/01/21 06:25:11;;;;;;;5.68;2.63;;;4.20;96.80;;;;;;10310275;28;20037;-89
2024/01/21 06:30:13;;;;;;;6.50;2.13;;;5.40;97.20;;;;;;10307183;28;20402;-88
2024/01/21 06:35:14;;;;;;;5.22;2.20;;;4.20;96.70;;;;;;10307265;28;20466;-90
2024/01/21 06:40:15;;;;;;;5.50;2.47;;;4.20;96.90;;;;;;10311845;28;20023;-89
2024/01/21 06:45:16;;;;;;;7.22;3.33;;;4.20;97.00;;;;;;10308354;28;20069;-89
2024/01/21 06:50:18;;;;;;;5.22;2.50;;;4.20;96.70;;;;;;10314209;28;20019;-89
2024/01/21 06:55:18;;;;;;;5.72;2.72;;;4.70;96.70;;;;;;10303861;28;20061;-89
2024/01/21 07:00:19;;;;;;;6.57;2.92;;;4.10;96.80;;;;;;10303953;28;20018;-89
2024/01/21 07:05:20;;;;;;;6.32;2.92;;;4.20;96.70;;;;;;10298671;28;20026;-90
2024/01/21 07:10:21;;;;;;;4.57;2.42;;;4.20;96.70;;;;;;10313404;28;20109;-89
2024/01/21 07:15:22;;;;;;;4.70;2.45;;;5.50;97.00;;;;;;10315457;28;20486;-88
2024/01/21 07:20:23;;;;;;;4.88;2.60;;;6.40;97.10;;;;;;10305865;28;20025;-88
2024/01/21 07:25:24;;;;;;;4.68;2.55;;;;;;;;;;10304166;28;20041;-88
2024/01/21 07:30:25;;;;;;;4.43;2.55;;;4.20;96.30;;;;;;10306389;28;20038;-87
2024/01/21 07:35:25;;;;;;;7.78;2.50;;;4.20;96.70;;;;;;10309389;28;20507;-89
2024/01/21 07:40:27;;;;;;;6.82;2.63;;;5.20;96.70;;;;;;10306812;28;20015;-89
2024/01/21 07:45:27;;;;;;;5.72;2.92;;;4.10;96.40;;;;;;10304509;28;20107;-89
2024/01/21 07:50:28;;;;;;;5.22;2.40;;;4.10;96.40;;;;;;10314833;28;20026;-87
2024/01/21 07:55:29;;;;;;;6.05;2.80;;;4.20;96.40;;;;;;10310327;28;20022;-88
2024/01/21 08:00:30;;;;;;;6.43;2.58;;;5.20;96.70;;;;;;10308207;28;20026;-90
2024/01/21 08:05:32;;;;;;;5.53;2.70;;;4.20;96.60;;;;;;10309933;28;20022;-90
2024/01/21 08:10:33;;;;;;;5.80;2.70;;;4.90;96.60;;;;;;10307629;28;20022;-92
2024/01/21 08:15:38;;;;;;;6.40;2.85;;;4.20;96.60;;;;;;10309034;28;20085;-92
2024/01/21 08:20:39;;;;;;;4.93;2.55;;;5.40;96.80;;;;;;10302418;28;20092;-92
2024/01/21 08:25:40;;;;;;;5.57;2.92;;;4.20;96.60;;;;;;10308163;28;20306;-90
2024/01/21 08:30:41;;;;;;;6.50;2.90;;;5.70;96.80;;;;;;10311388;28;20018;-92
2024/01/21 08:35:41;;;;;;;5.78;2.70;;;4.30;96.40;;;;;;10307454;28;20037;-90
2024/01/21 08:40:43;;;;;;;6.03;2.60;;;4.30;96.40;;;;;;10310012;28;20022;-87
2024/01/21 08:45:44;;;;;;;5.38;2.78;;;;;;;;;;10310492;28;20109;-90
2024/01/21 08:50:44;;;;;;;4.93;2.50;;;4.30;96.10;;;;;;10307495;28;20544;-91
2024/01/21 08:55:45;;;;;;;5.68;2.72;;;5.60;96.60;;;;;;10312943;28;20029;-89
2024/01/21 09:00:46;;;;;;;6.47;2.83;;;4.40;96.30;;;;;;10319141;28;20101;-89
2024/01/21 09:05:46;;;;;;;5.50;3.20;;;4.60;96.30;;;;;;10315975;28;20014;-89
2024/01/21 09:10:47;;;;;;;4.88;2.85;;;4.30;96.30;;;;;;10317258;28;20026;-90
2024/01/21 09:15:48;;;;;;;7.50;3.22;;;4.30;96.20;;;;;;10308494;28;20022;-90
2024/01/21 09:20:48;;;;;;;5.95;3.03;;;5.50;96.60;;;;;;10312334;28;20266;-89
2024/01/21 09:25:49;;;;;;;4.55;2.72;;;5.50;96.60;;;;;;10311993;28;20033;-89
2024/01/21 09:30:50;;;;;;;6.40;2.90;;;4.30;96.20;;;;;;10315469;28;20491;-89
2024/01/21 09:35:51;;;;;;;5.47;2.80;;;4.40;96.30;;;;;;10312822;28;20050;-90
2024/01/21 09:41:00;;;;;;;5.78;2.60;;;6.80;96.90;;;;;;10313143;28;20281;-90
2024/01/21 09:46:02;;;;;;;5.72;2.60;;;5.60;96.50;;;;;;10312997;28;20514;-90
2024/01/21 09:51:05;;;;;;;7.07;2.88;;;4.50;96.30;;;;;;10312096;28;20022;-90
2024/01/21 09:56:07;;;;;;;5.38;2.33;;;5.60;96.60;;;;;;10312166;28;20061;-89
2024/01/21 10:01:08;;;;;;;5.68;2.85;;;4.50;96.30;;;;;;10310046;28;20482;-91
2024/01/21 10:06:09;;;;;;;6.57;2.97;;;5.60;96.60;;;;;;10314512;28;20117;-91
2024/01/21 10:11:09;;;;;;;5.38;2.40;;;5.50;96.60;;;;;;10311621;28;20383;-90
2024/01/21 10:16:10;;;;;;;6.68;2.72;;;6.00;96.70;;;;;;10300337;28;20414;-90
2024/01/21 10:21:10;;;;;;;6.70;2.88;;;4.60;96.40;;;;;;10308273;28;20430;-90
2024/01/21 10:26:11;;;;;;;7.78;3.03;;;4.60;96.40;;;;;;10310500;28;20670;-90
2024/01/21 10:31:12;;;;;;;5.85;2.75;;;4.80;96.40;;;;;;10312078;28;20084;-90
2024/01/21 10:36:14;;;;;;;6.70;2.85;;;5.80;96.70;;;;;;10318107;28;20494;-90
2024/01/21 10:41:25;;;;;;;6.00;2.97;;;4.60;96.40;;;;;;10307184;28;20576;-90
2024/01/21 10:46:26;;;;;;;5.95;3.45;;;4.60;96.40;;;;;;10307866;28;20249;-89
2024/01/21 10:51:29;;;;;;;6.40;2.97;;;4.60;96.50;;;;;;10319503;28;20022;-90
2024/01/21 10:56:30;;;;;;;6.93;3.40;;;5.60;96.70;;;;;;10310734;28;20105;-89
2024/01/21 11:01:33;;;;;;;4.60;2.53;;;5.20;96.70;;;;;;10312679;28;20010;-89
2024/01/21 11:06:34;;;;;;;6.47;2.65;;;4.70;96.50;;;;;;10313727;28;20455;-90
2024/01/21 11:11:44;;;;;;;6.07;2.70;;;4.70;96.60;;;;;;10316958;28;20161;-89
2024/01/21 11:16:45;;;;;;;6.00;2.70;;;4.70;96.60;;;;;;10309392;28;20023;-89
2024/01/21 11:21:46;;;;;;;6.63;2.75;;;4.70;96.60;;;;;;10306206;28;20034;-90
2024/01/21 11:26:47;;;;;;;5.47;2.63;;;4.70;96.70;;;;;;10318173;28;20029;-90
2024/01/21 11:32:03;;;;;;;5.40;2.75;;;4.70;96.70;;;;;;10309084;28;20026;-90
2024/01/21 11:37:04;;;;;;;5.50;2.63;;;4.80;96.70;;;;;;10311713;28;20064;-89
2024/01/21 11:42:05;;;;;;;5.57;2.55;;;4.80;96.70;;;;;;10312228;28;20027;-90
2024/01/21 11:47:07;;;;;;;7.22;3.05;;;4.90;96.70;;;;;;10316442;28;20087;-89
2024/01/21 11:52:08;;;;;;;6.28;2.92;;;4.80;96.80;;;;;;10309238;28;20018;-89
2024/01/21 11:57:09;;;;;;;4.55;2.67;;;4.90;96.90;;;;;;10312702;28;20145;-90
2024/01/21 12:02:09;;;;;;;5.95;2.63;;;5.90;97.10;;;;;;10309031;28;20027;-89
2024/01/21 12:07:10;;;;;;;7.45;3.10;;;4.90;96.90;;;;;;10309159;28;20034;-89
2024/01/21 12:12:13;;;;;;;5.00;2.80;;;5.00;96.90;;;;;;10308744;28;20085;-88
2024/01/21 12:17:13;;;;;;;5.80;3.10;;;5.90;97.10;;;;;;10308310;28;20073;-90
2024/01/21 12:22:14;;;;;;;5.30;2.83;;;6.10;97.30;;;;;;10312327;28;20292;-91
2024/01/21 12:27:15;;;;;;;5.95;3.03;;;6.30;97.40;;;;;;10309041;28;20019;-91
2024/01/21 12:32:16;;;;;;;4.85;2.70;;;6.20;97.40;;;;;;10309330;28;20506;-90
2024/01/21 12:37:17;;;;;;;4.85;2.80;;;6.40;97.50;;;;;;10313715;28;20077;-90
2024/01/21 12:42:18;;;;;;;5.78;3.05;;;6.30;97.50;;;;;;10312488;28;20081;-88
2024/01/21 12:47:19;;;;;;;6.13;2.50;;;5.00;97.20;;;;;;10305556;28;20566;-90
2024/01/21 12:52:20;;;;;;;5.50;3.10;;;6.10;97.60;;;;;;10314900;28;20026;-90
2024/01/21 12:57:20;;;;;;;4.93;2.67;;;5.10;97.40;;;;;;10311817;28;20046;-89
2024/01/21 13:02:21;;;;;;;5.85;3.20;;;5.60;97.50;;;;;;10310090;28;20022;-89
2024/01/21 13:07:22;;;;;;;6.55;3.15;;;5.00;97.30;;;;;;10313425;28;20019;-90
2024/01/21 13:12:23;;;;;;;9.93;3.00;;;6.00;97.60;;;;;;10309119;28;20502;-89
2024/01/21 13:17:23;;;;;;;5.50;3.15;;;5.10;97.40;;;;;;10309413;28;20022;-90
2024/01/21 13:22:24;;;;;;;7.80;3.45;;;5.30;97.50;;;;;;10315000;28;20113;-90
2024/01/21 13:27:37;;;;;;;6.40;3.38;;;6.10;97.80;;;;;;10310497;28;20034;-90
2024/01/21 13:32:38;;;;;;;4.20;2.85;;;5.00;97.50;;;;;;10312242;28;20064;-90
2024/01/21 13:37:38;;;;;;;8.80;3.20;;;5.00;97.60;;;;;;10307461;28;20030;-90
2024/01/21 13:42:39;;;;;;;7.15;2.78;;;6.30;98.00;;;;;;10306210;28;20691;-90
2024/01/21 13:47:40;;;;;;;6.88;3.00;;;5.60;97.80;;;;;;10312473;28;20427;-90
2024/01/21 13:52:41;;;;;;;7.25;2.75;;;6.40;98.00;;;;;;10322115;28;20027;-90
2024/01/21 13:57:41;;;;;;;4.93;2.90;;;5.10;97.70;;;;;;10320616;28;20026;-90
2024/01/21 14:02:42;;;;;;;7.85;3.75;;;5.40;97.90;;;;;;10311333;28;20018;-89
2024/01/21 14:07:43;;;;;;;7.00;3.65;;;6.00;98.00;;;;;;10318752;28;20426;-90
2024/01/21 14:12:43;;;;;;;6.32;3.30;;;6.30;98.10;;;;;;10319663;28;20110;-90
2024/01/21 14:17:45;;;;;;;10.95;3.40;;;5.20;97.90;;;;;;10308327;28;20257;-89
2024/01/21 14:22:45;;;;;;;9.18;3.78;;;6.10;98.10;;;;;;10312596;28;20016;-90
2024/01/21 14:27:47;;;;;;;7.07;3.47;;;5.50;98.10;;;;;;10312853;28;20375;-89
2024/01/21 14:32:48;;;;;;;9.30;3.40;;;5.90;98.20;;;;;;10312771;28;20113;-90
2024/01/21 14:37:49;;;;;;;8.35;3.45;;;;;;;;;;10311603;28;20029;-90
2024/01/21 14:42:50;;;;;;;9.63;3.35;;;5.30;97.80;;;;;;10311947;28;20060;-89
2024/01/21 14:47:50;;;;;;;6.32;2.97;;;5.30;98.20;;;;;;10305076;28;20031;-89
2024/01/21 14:52:51;;;;;;;7.63;3.92;;;5.80;98.30;;;;;;10315070;28;20521;-90
2024/01/21 14:57:56;;;;;;;6.88;3.50;;;5.20;98.30;;;;;;10299643;28;20458;-89
2024/01/21 15:02:57;;;;;;;8.82;3.40;;;6.70;98.50;;;;;;10318028;28;20018;-88
2024/01/21 15:07:58;;;;;;;6.68;3.38;;;5.40;98.30;;;;;;10309451;28;20038;-90
2024/01/21 15:12:58;;;;;;;6.30;3.67;;;5.70;98.40;;;;;;10320840;28;20022;-90
2024/01/21 15:18:00;;;;;;;9.20;3.70;;;6.30;98.60;;;;;;10314657;28;20046;-91
2024/01/21 15:23:01;;;;;;;8.38;3.58;;;5.30;98.10;;;;;;10307541;28;20102;-90
2024/01/21 15:28:01;;;;;;;6.82;3.30;;;6.30;98.60;;;;;;10313183;28;20457;-89
2024/01/21 15:33:02;;;;;;;7.53;3.10;;;6.20;98.80;;;;;;10308683;28;20109;-90
2024/01/21 15:38:03;;;;;;;6.43;4.00;;;5.40;98.50;;;;;;10309817;28;20031;-90
2024/01/21 15:43:04;;;;;;;6.40;3.35;;;5.40;98.70;;;;;;10311288;28;20053;-90
2024/01/21 15:48:05;;;;;;;9.50;3.85;;;5.50;98.60;;;;;;10316543;28;20037;-89
2024/01/21 15:53:06;;;;;;;11.13;3.90;;;5.40;98.60;;;;;;10314096;28;20069;-91
2024/01/21 15:58:06;;;;;;;9.82;3.50;;;5.50;98.70;;;;;;10307939;28;20026;-89
2024/01/21 16:03:07;;;;;;;9.07;3.83;;;5.30;98.70;;;;;;10310643;28;20506;-90
2024/01/21 16:08:08;;;;;;;6.80;3.63;;;6.50;98.90;;;;;;10307430;28;20109;-90
2024/01/21 16:13:09;;;;;;;7.28;4.15;;;6.50;99.00;;;;;;10309997;28;20277;-90
2024/01/21 16:18:09;;;;;;;6.43;3.28;;;5.50;98.80;;;;;;10305870;28;20565;-90
2024/01/21 16:23:10;;;;;;;7.63;3.55;;;5.60;98.90;;;;;;10305917;28;20525;-90
2024/01/21 16:28:11;;;;;;;10.30;3.75;;;6.80;99.20;;;;;;10305802;28;20084;-89
2024/01/21 16:33:13;;;;;;;6.15;3.33;;;5.90;99.00;;;;;;10306977;28;20022;-90
2024/01/21 16:38:15;;;;;;;7.85;3.65;;;6.10;99.00;;;;;;10304444;28;20026;-89
2024/01/21 16:43:18;;;;;;;6.50;3.65;;;5.50;98.60;;;;;;10303516;28;20027;-90
2024/01/21 16:48:22;;;;;;;9.13;4.10;;;6.50;99.30;;;;;;10304185;28;20041;-89
2024/01/21 16:53:28;;;;;;;11.73;4.30;;;5.50;98.70;;;;;;10310494;28;20061;-90
2024/01/21 16:58:29;;;;;;;6.82;4.07;;;6.60;99.20;;;;;;10306737;28;20064;-92
2024/01/21 17:03:30;;;;;;;7.82;3.80;;;5.50;99.10;;;;;;10371185;23;20041;-68
2024/01/21 17:08:31;;;;;;;8.52;4.63;;;5.50;98.90;;;;;;10369288;28;20410;-66
2024/01/21 17:13:31;;;;;;;7.03;4.00;;;5.50;98.90;;;;;;10354607;28;20038;-68
2024/01/21 17:18:50;;;;;;;9.75;4.40;;;5.60;99.00;;;;;;10355832;28;20309;-66
2024/01/21 17:23:51;;;;;;;7.68;3.70;;;5.60;99.10;;;;;;10373573;28;20083;-70
2024/01/21 17:28:52;;;;;;;7.72;4.25;;;5.70;99.20;;;;;;10350748;28;20030;-68
2024/01/21 17:33:54;;;;;;;9.23;4.82;;;5.80;99.10;;;;;;10365656;28;20160;-68
2024/01/21 17:38:55;;;;;;;9.57;4.18;;;5.80;99.10;;;;;;10372002;28;20427;-68
2024/01/21 17:43:56;;;;;;;10.27;5.15;;;5.80;99.20;;;;;;10370354;28;20034;-68
2024/01/21 17:48:57;;;;;;;8.20;4.78;;;5.80;99.20;;;;;;10364018;28;20026;-68
2024/01/21 17:53:57;;;;;;;10.00;4.28;;;5.80;99.30;;;;;;10368735;28;20026;-68
2024/01/21 17:58:58;;;;;;;7.00;4.28;;;5.70;99.30;;;;;;10368233;28;20053;-68
2024/01/21 18:03:58;;;;;;;8.73;4.00;;;5.70;99.30;;;;;;10362516;28;20061;-68
2024/01/21 18:08:59;;;;;;;8.73;4.15;;;5.70;99.40;;;;;;10363975;28;20069;-68
2024/01/21 18:14:00;;;;;;;9.18;4.28;;;5.70;99.40;;;;;;10364498;28;20034;-68
2024/01/21 18:19:03;;;;;;;10.45;4.88;;;5.70;99.40;;;;;;10374420;28;20014;-67
2024/01/21 18:24:05;;;;;;;10.68;5.25;;;5.70;99.40;;;;;;10366044;28;20097;-67
2024/01/21 18:29:06;;;;;;;13.00;5.05;;;5.70;99.50;;;;;;10366567;28;20025;-67
2024/01/21 18:34:07;;;;;;;11.88;4.95;;;5.70;99.50;;;;;;10356859;28;20538;-68
2024/01/21 18:39:08;;;;;;;11.57;6.00;;;5.70;99.60;;;;;;10365398;28;20029;-69
2024/01/21 18:44:08;;;;;;;11.20;4.88;;;5.70;99.60;;;;;;10362654;28;20022;-68
2024/01/21 18:49:09;;;;;;;12.68;4.60;;;5.70;99.60;;;;;;10365230;28;20379;-69
2024/01/21 18:54:12;;;;;;;8.07;4.43;;;5.70;99.60;;;;;;10363967;28;20030;-68
2024/01/21 18:59:12;;;;;;;12.13;4.78;;;5.70;99.70;;;;;;10363940;28;20029;-68
2024/01/21 19:04:13;;;;;;;9.82;4.78;;;5.70;99.70;;;;;;10367702;28;20528;-68
2024/01/21 19:09:14;;;;;;;9.27;4.78;;;5.70;99.70;;;;;;10359918;28;20021;-68
2024/01/21 19:14:14;;;;;;;8.95;4.60;;;5.70;99.80;;;;;;10367970;28;20099;-68
2024/01/21 19:19:15;;;;;;;9.63;4.85;;;5.70;99.80;;;;;;10368118;28;20022;-69
2024/01/21 19:24:16;;;;;;;13.20;4.65;;;5.80;99.80;;;;;;10357308;28;20022;-68
2024/01/21 19:29:17;;;;;;;10.50;4.18;;;5.90;99.90;;;;;;10359403;28;20022;-69
2024/01/21 19:34:17;;;;;;;8.50;4.20;;;5.90;99.90;;;;;;10358014;28;20029;-68
2024/01/21 19:39:18;;;;;;;9.23;4.25;;;6.00;99.90;;;;;;10362152;28;20038;-68
2024/01/21 19:44:20;;;;;;;9.82;4.30;;;5.90;99.90;;;;;;10352408;28;20082;-68
2024/01/21 19:49:20;;;;;;;10.43;3.83;;;5.90;99.90;;;;;;10356058;28;20118;-68
2024/01/21 19:54:21;;;;;;;7.00;4.00;;;5.90;99.90;;;;;;10360314;28;20445;-68
2024/01/21 19:59:22;;;;;;;10.82;4.75;;;5.90;99.90;;;;;;10351256;28;20026;-68
2024/01/21 20:04:22;;;;;;;10.98;5.25;;;5.90;99.90;;;;;;10352039;28;20506;-68
2024/01/21 20:09:23;;;;;;;13.13;4.90;;;5.90;99.90;;;;;;10358076;28;20030;-68
2024/01/21 20:14:24;;;;;;;10.85;4.57;;;5.90;99.90;;;;;;10357614;28;20022;-68
2024/01/21 20:19:24;;;;;;;12.38;4.53;;;5.90;99.90;;;;;;10363008;28;20057;-68
2024/01/21 20:24:26;;;;;;;10.02;4.57;;;5.90;99.90;;;;;;10355231;28;20091;-68
2024/01/21 20:29:26;;;;;;;10.40;4.30;;;5.90;99.90;;;;;;10361248;28;20117;-68
2024/01/21 20:34:27;;;;;;;9.07;4.35;;;5.90;99.90;;;;;;10354104;28;20034;-68
2024/01/21 20:39:27;;;;;;;11.55;4.95;;;5.90;99.90;;;;;;10362238;28;20537;-68
2024/01/21 20:44:28;;;;;;;7.80;4.10;;;5.90;99.90;;;;;;10352528;28;20671;-68
2024/01/21 20:49:29;;;;;;;11.30;5.13;;;5.90;99.90;;;;;;10363875;28;20157;-68
2024/01/21 20:54:35;;;;;;;7.25;3.80;;;5.90;99.90;;;;;;10356569;28;20025;-68
2024/01/21 20:59:36;;;;;;;9.82;4.00;;;5.90;99.90;;;;;;10372240;28;20051;-68
2024/01/21 21:04:36;;;;;;;9.18;4.35;;;5.90;99.90;;;;;;10358819;28;20027;-68
2024/01/21 21:09:37;;;;;;;11.15;4.47;;;5.90;99.90;;;;;;10361485;28;20029;-68
2024/01/21 21:14:37;;;;;;;6.93;3.75;;;5.90;99.90;;;;;;10364331;28;20087;-68
2024/01/21 21:19:41;;;;;;;10.30;3.80;;;5.90;99.90;;;;;;10362380;28;20033;-68
2024/01/21 21:24:42;;;;;;;8.88;3.63;;;5.90;99.90;;;;;;10368632;28;20045;-68
2024/01/21 21:29:43;;;;;;;7.82;3.63;;;6.00;99.90;;;;;;10370630;28;20117;-68
2024/01/21 21:34:43;;;;;;;7.22;3.72;;;6.00;99.90;;;;;;10372919;28;20432;-67
2024/01/21 21:39:44;;;;;;;6.38;3.20;;;6.00;99.90;;;;;;10363830;28;20101;-68
2024/01/21 21:44:45;;;;;;;8.20;3.35;;;6.00;99.90;;;;;;10367928;28;20026;-68
2024/01/21 21:49:45;;;;;;;6.63;3.15;;;6.00;99.90;;;;;;10367556;28;20425;-68
2024/01/21 21:54:46;;;;;;;8.45;3.80;;;6.00;99.90;;;;;;10364095;28;20107;-68
2024/01/21 21:59:47;;;;;;;8.45;4.10;;;6.00;99.90;;;;;;10364377;28;20026;-68
2024/01/21 22:04:47;;;;;;;8.25;3.78;;;6.00;99.90;;;;;;10363977;28;20053;-68
2024/01/21 22:09:48;;;;;;;6.95;3.33;;;6.00;99.90;;;;;;10366479;28;20085;-68
2024/01/21 22:14:48;;;;;;;5.55;3.38;;;6.10;99.90;;;;;;10369510;28;20060;-68
2024/01/21 22:19:49;;;;;;;9.52;3.38;;;6.10;99.90;;;;;;10363155;28;20030;-68
2024/01/21 22:24:50;;;;;;;8.82;3.47;;;6.10;99.90;;;;;;10370793;28;20033;-68
2024/01/21 22:29:51;;;;;;;8.10;3.88;;;6.10;99.90;;;;;;10371933;28;20030;-68
2024/01/21 22:34:52;;;;;;;7.15;3.60;;;6.10;99.90;;;;;;10368202;28;20025;-68
2024/01/21 22:39:53;;;;;;;7.88;3.60;;;6.10;99.90;;;;;;10372361;28;20032;-68
2024/01/21 22:44:53;;;;;;;5.65;3.08;;;6.10;99.90;;;;;;10365197;28;20040;-68
2024/01/21 22:49:54;;;;;;;7.55;3.40;;;6.10;99.90;;;;;;10370344;28;20443;-68
2024/01/21 22:54:55;;;;;;;7.18;2.95;;;6.20;99.90;;;;;;10364431;28;20030;-68
2024/01/21 22:59:56;;;;;;;8.25;3.53;;;6.20;99.90;;;;;;10367015;28;20022;-68
2024/01/21 23:04:56;;;;;;;7.45;3.28;;;6.20;99.90;;;;;;10371488;28;20037;-68
2024/01/21 23:09:57;;;;;;;7.13;2.92;;;6.20;99.90;;;;;;10369778;28;20044;-68
2024/01/21 23:14:58;;;;;;;5.30;3.00;;;6.20;99.90;;;;;;10369943;28;20025;-68
2024/01/21 23:19:59;;;;;;;6.30;2.65;;;6.20;99.90;;;;;;10365395;28;20584;-68
2024/01/21 23:24:59;;;;;;;5.95;3.85;;;6.20;99.90;;;;;;10373490;28;20516;-68
2024/01/21 23:30:00;;;;;;;8.27;2.85;;;6.30;99.90;;;;;;10370702;28;20037;-68
2024/01/21 23:35:01;;;;;;;7.55;2.90;;;6.30;99.90;;;;;;10372771;28;20171;-68
2024/01/21 23:40:01;;;;;;;4.82;2.70;;;6.30;99.90;;;;;;10366666;28;20030;-68
2024/01/21 23:45:02;;;;;;;6.53;2.70;;;6.30;99.90;;;;;;10355696;28;20021;-68
2024/01/21 23:50:03;;;;;;;4.15;2.47;;;6.40;99.90;;;;;;10366002;28;20394;-68
2024/01/21 23:55:03;;;;;;;5.25;2.85;;;6.40;99.90;;;;;;10367041;28;20846;-68
